sensor_id;sensor_type;location;lat;lon;timestamp;P1;durP1;ratioP1;P2;durP2;ratioP2
2001;SDS011;1003;48.002;7.788;2023-12-07T00:02:17;10.67;;;6.23;;
2001;SDS011;1003;48.002;7.788;2023-12-07T00:04:44;10.40;;;5.97;;
2001;SDS011;1003;48.002;7.788;2023-12-07T00:07:11;11.93;;;6.63;;
2001;SDS011;1003;48.002;7.788;2023-12-07T00:09:38;9.57;;;6.40;;
2001;SDS011;1003;48.002;7.788;2023-12-07T00:12:05;11.27;;;6.00;;
2001;SDS011;1003;48.002;7.788;2023-12-07T00:14:33;10.97;;;6.00;;
2001;SDS011;1003;48.002;7.788;2023-12-07T00:17:00;9.20;;;5.90;;
2001;SDS011;1003;48.002;7.788;2023-12-07T00:19:28;11.07;;;6.17;;
2001;SDS011;1003;48.002;7.788;2023-12-07T00:21:55;10.37;;;5.97;;
2001;SDS011;1003;48.002;7.788;2023-12-07T00:24:22;9.60;;;5.57;;
2001;SDS011;1003;48.002;7.788;2023-12-07T00:26:49;9.63;;;5.53;;
2001;SDS011;1003;48.002;7.788;2023-12-07T00:29:16;10.90;;;5.93;;
2001;SDS011;1003;48.002;7.788;2023-12-07T00:31:43;10.17;;;5.93;;
2001;SDS011;1003;48.002;7.788;2023-12-07T00:34:10;10.17;;;5.33;;
2001;SDS011;1003;48.002;7.788;2023-12-07T00:36:38;9.73;;;5.97;;
2001;SDS011;1003;48.002;7.788;2023-12-07T00:39:06;10.37;;;5.77;;
2001;SDS011;1003;48.002;7.788;2023-12-07T00:41:33;9.53;;;5.70;;
2001;SDS011;1003;48.002;7.788;2023-12-07T00:44:00;10.03;;;5.50;;
2001;SDS011;1003;48.002;7.788;2023-12-07T00:46:27;10.23;;;6.10;;
2001;SDS011;1003;48.002;7.788;2023-12-07T00:48:54;10.33;;;6.10;;
2001;SDS011;1003;48.002;7.788;2023-12-07T00:51:21;10.83;;;6.13;;
2001;SDS011;1003;48.002;7.788;2023-12-07T00:53:49;10.27;;;6.10;;
2001;SDS011;1003;48.002;7.788;2023-12-07T00:56:16;11.80;;;6.03;;
2001;SDS011;1003;48.002;7.788;2023-12-07T00:58:43;8.33;;;5.03;;
2001;SDS011;1003;48.002;7.788;2023-12-07T01:01:10;11.13;;;5.77;;
2001;SDS011;1003;48.002;7.788;2023-12-07T01:03:37;10.43;;;5.90;;
2001;SDS011;1003;48.002;7.788;2023-12-07T01:06:05;11.00;;;5.70;;
2001;SDS011;1003;48.002;7.788;2023-12-07T01:08:32;9.87;;;5.70;;
2001;SDS011;1003;48.002;7.788;2023-12-07T01:11:01;9.47;;;5.40;;
2001;SDS011;1003;48.002;7.788;2023-12-07T01:13:28;10.33;;;5.80;;
2001;SDS011;1003;48.002;7.788;2023-12-07T01:15:55;11.30;;;5.90;;
2001;SDS011;1003;48.002;7.788;2023-12-07T01:18:22;8.27;;;4.83;;
2001;SDS011;1003;48.002;7.788;2023-12-07T01:20:49;10.20;;;5.37;;
2001;SDS011;1003;48.002;7.788;2023-12-07T01:23:16;9.50;;;4.87;;
2001;SDS011;1003;48.002;7.788;2023-12-07T01:25:43;9.50;;;5.13;;
2001;SDS011;1003;48.002;7.788;2023-12-07T01:28:11;9.37;;;5.73;;
2001;SDS011;1003;48.002;7.788;2023-12-07T01:30:38;9.70;;;5.50;;
2001;SDS011;1003;48.002;7.788;2023-12-07T01:33:05;11.20;;;5.73;;
2001;SDS011;1003;48.002;7.788;2023-12-07T01:35:31;9.70;;;5.70;;
2001;SDS011;1003;48.002;7.788;2023-12-07T01:37:58;9.57;;;5.90;;
2001;SDS011;1003;48.002;7.788;2023-12-07T01:40:25;12.60;;;7.80;;
2001;SDS011;1003;48.002;7.788;2023-12-07T01:42:52;10.87;;;6.60;;
2001;SDS011;1003;48.002;7.788;2023-12-07T01:45:21;12.80;;;6.50;;
2001;SDS011;1003;48.002;7.788;2023-12-07T01:47:48;11.03;;;6.40;;
2001;SDS011;1003;48.002;7.788;2023-12-07T01:50:18;11.93;;;6.23;;
2001;SDS011;1003;48.002;7.788;2023-12-07T01:52:49;11.73;;;5.90;;
2001;SDS011;1003;48.002;7.788;2023-12-07T01:55:23;9.67;;;5.77;;
2001;SDS011;1003;48.002;7.788;2023-12-07T01:57:52;9.80;;;5.90;;
2001;SDS011;1003;48.002;7.788;2023-12-07T02:00:20;10.63;;;5.53;;
2001;SDS011;1003;48.002;7.788;2023-12-07T02:02:48;11.93;;;6.03;;
2001;SDS011;1003;48.002;7.788;2023-12-07T02:05:17;10.07;;;5.73;;
2001;SDS011;1003;48.002;7.788;2023-12-07T02:07:44;11.77;;;6.10;;
2001;SDS011;1003;48.002;7.788;2023-12-07T02:10:12;11.07;;;5.80;;
2001;SDS011;1003;48.002;7.788;2023-12-07T02:12:40;9.27;;;5.27;;
2001;SDS011;1003;48.002;7.788;2023-12-07T02:15:07;11.20;;;6.20;;
2001;SDS011;1003;48.002;7.788;2023-12-07T02:17:39;9.47;;;5.43;;
2001;SDS011;1003;48.002;7.788;2023-12-07T02:20:18;12.13;;;6.57;;
2001;SDS011;1003;48.002;7.788;2023-12-07T02:22:55;9.83;;;5.53;;
2001;SDS011;1003;48.002;7.788;2023-12-07T02:25:29;9.30;;;4.77;;
2001;SDS011;1003;48.002;7.788;2023-12-07T02:28:03;10.43;;;5.47;;
2001;SDS011;1003;48.002;7.788;2023-12-07T02:30:30;8.67;;;5.30;;
2001;SDS011;1003;48.002;7.788;2023-12-07T02:32:58;9.60;;;5.03;;
2001;SDS011;1003;48.002;7.788;2023-12-07T02:35:27;8.77;;;4.67;;
2001;SDS011;1003;48.002;7.788;2023-12-07T02:37:55;8.27;;;4.83;;
2001;SDS011;1003;48.002;7.788;2023-12-07T02:40:24;7.37;;;4.70;;
2001;SDS011;1003;48.002;7.788;2023-12-07T02:42:54;8.33;;;5.10;;
2001;SDS011;1003;48.002;7.788;2023-12-07T02:45:23;8.43;;;5.27;;
2001;SDS011;1003;48.002;7.788;2023-12-07T02:47:51;7.77;;;4.60;;
2001;SDS011;1003;48.002;7.788;2023-12-07T02:50:19;7.87;;;4.83;;
2001;SDS011;1003;48.002;7.788;2023-12-07T02:52:46;8.53;;;4.47;;
2001;SDS011;1003;48.002;7.788;2023-12-07T02:55:13;8.03;;;4.57;;
2001;SDS011;1003;48.002;7.788;2023-12-07T02:57:40;8.77;;;4.60;;
2001;SDS011;1003;48.002;7.788;2023-12-07T03:00:07;7.83;;;4.20;;
2001;SDS011;1003;48.002;7.788;2023-12-07T03:02:39;8.53;;;4.50;;
2001;SDS011;1003;48.002;7.788;2023-12-07T03:05:06;8.03;;;4.10;;
2001;SDS011;1003;48.002;7.788;2023-12-07T03:07:34;7.07;;;4.23;;
2001;SDS011;1003;48.002;7.788;2023-12-07T03:10:01;6.87;;;4.17;;
2001;SDS011;1003;48.002;7.788;2023-12-07T03:12:29;8.50;;;4.37;;
2001;SDS011;1003;48.002;7.788;2023-12-07T03:14:56;7.63;;;4.40;;
2001;SDS011;1003;48.002;7.788;2023-12-07T03:17:23;6.97;;;3.80;;
2001;SDS011;1003;48.002;7.788;2023-12-07T03:19:51;8.07;;;4.23;;
2001;SDS011;1003;48.002;7.788;2023-12-07T03:22:18;6.67;;;4.00;;
2001;SDS011;1003;48.002;7.788;2023-12-07T03:24:46;7.57;;;3.90;;
2001;SDS011;1003;48.002;7.788;2023-12-07T03:27:17;6.67;;;4.00;;
2001;SDS011;1003;48.002;7.788;2023-12-07T03:29:44;6.77;;;3.40;;
2001;SDS011;1003;48.002;7.788;2023-12-07T03:32:11;6.47;;;3.47;;
2001;SDS011;1003;48.002;7.788;2023-12-07T03:34:38;6.97;;;3.47;;
2001;SDS011;1003;48.002;7.788;2023-12-07T03:37:07;6.60;;;3.67;;
2001;SDS011;1003;48.002;7.788;2023-12-07T03:39:34;5.70;;;3.30;;
2001;SDS011;1003;48.002;7.788;2023-12-07T03:42:01;6.67;;;3.97;;
2001;SDS011;1003;48.002;7.788;2023-12-07T03:44:28;6.03;;;3.50;;
2001;SDS011;1003;48.002;7.788;2023-12-07T03:46:55;5.50;;;3.53;;
2001;SDS011;1003;48.002;7.788;2023-12-07T03:49:22;6.47;;;3.43;;
2001;SDS011;1003;48.002;7.788;2023-12-07T03:51:49;5.53;;;3.50;;
2001;SDS011;1003;48.002;7.788;2023-12-07T03:54:18;6.93;;;3.77;;
2001;SDS011;1003;48.002;7.788;2023-12-07T03:56:45;6.00;;;3.53;;
2001;SDS011;1003;48.002;7.788;2023-12-07T03:59:12;5.47;;;3.30;;
2001;SDS011;1003;48.002;7.788;2023-12-07T04:01:39;5.63;;;3.20;;
2001;SDS011;1003;48.002;7.788;2023-12-07T04:04:05;6.57;;;3.50;;
2001;SDS011;1003;48.002;7.788;2023-12-07T04:06:32;5.63;;;3.50;;
2001;SDS011;1003;48.002;7.788;2023-12-07T04:08:59;6.60;;;3.40;;
2001;SDS011;1003;48.002;7.788;2023-12-07T04:11:27;4.60;;;3.10;;
2001;SDS011;1003;48.002;7.788;2023-12-07T04:13:54;5.33;;;3.50;;
2001;SDS011;1003;48.002;7.788;2023-12-07T04:16:21;6.87;;;3.73;;
2001;SDS011;1003;48.002;7.788;2023-12-07T04:18:48;7.17;;;3.90;;
2001;SDS011;1003;48.002;7.788;2023-12-07T04:21:15;5.57;;;3.67;;
2001;SDS011;1003;48.002;7.788;2023-12-07T04:23:42;7.17;;;4.13;;
2001;SDS011;1003;48.002;7.788;2023-12-07T04:26:09;6.63;;;4.37;;
2001;SDS011;1003;48.002;7.788;2023-12-07T04:28:37;6.60;;;3.83;;
2001;SDS011;1003;48.002;7.788;2023-12-07T04:31:04;7.37;;;4.00;;
2001;SDS011;1003;48.002;7.788;2023-12-07T04:33:31;8.90;;;4.20;;
2001;SDS011;1003;48.002;7.788;2023-12-07T04:35:58;6.43;;;4.00;;
2001;SDS011;1003;48.002;7.788;2023-12-07T04:38:25;6.40;;;3.80;;
2001;SDS011;1003;48.002;7.788;2023-12-07T04:40:52;7.57;;;4.10;;
2001;SDS011;1003;48.002;7.788;2023-12-07T04:43:19;8.10;;;4.43;;
2001;SDS011;1003;48.002;7.788;2023-12-07T04:45:47;7.07;;;4.00;;
2001;SDS011;1003;48.002;7.788;2023-12-07T04:48:14;8.67;;;4.57;;
2001;SDS011;1003;48.002;7.788;2023-12-07T04:50:41;9.57;;;5.03;;
2001;SDS011;1003;48.002;7.788;2023-12-07T04:53:08;8.80;;;4.80;;
2001;SDS011;1003;48.002;7.788;2023-12-07T04:55:35;9.20;;;5.23;;
2001;SDS011;1003;48.002;7.788;2023-12-07T04:58:01;6.97;;;4.87;;
2001;SDS011;1003;48.002;7.788;2023-12-07T05:00:28;9.40;;;5.40;;
2001;SDS011;1003;48.002;7.788;2023-12-07T05:02:57;7.13;;;4.20;;
2001;SDS011;1003;48.002;7.788;2023-12-07T05:05:23;7.40;;;4.43;;
2001;SDS011;1003;48.002;7.788;2023-12-07T05:07:50;6.93;;;4.77;;
2001;SDS011;1003;48.002;7.788;2023-12-07T05:10:17;8.73;;;4.57;;
2001;SDS011;1003;48.002;7.788;2023-12-07T05:12:44;7.40;;;4.50;;
2001;SDS011;1003;48.002;7.788;2023-12-07T05:15:16;7.63;;;4.53;;
2001;SDS011;1003;48.002;7.788;2023-12-07T05:17:43;6.87;;;4.07;;
2001;SDS011;1003;48.002;7.788;2023-12-07T05:20:12;6.53;;;4.20;;
2001;SDS011;1003;48.002;7.788;2023-12-07T05:22:39;11.50;;;5.70;;
2001;SDS011;1003;48.002;7.788;2023-12-07T05:25:06;10.23;;;5.90;;
2001;SDS011;1003;48.002;7.788;2023-12-07T05:27:33;9.17;;;5.23;;
2001;SDS011;1003;48.002;7.788;2023-12-07T05:30:00;8.57;;;4.87;;
2001;SDS011;1003;48.002;7.788;2023-12-07T05:32:27;12.60;;;6.63;;
2001;SDS011;1003;48.002;7.788;2023-12-07T05:34:54;11.77;;;6.43;;
2001;SDS011;1003;48.002;7.788;2023-12-07T05:37:22;11.63;;;6.70;;
2001;SDS011;1003;48.002;7.788;2023-12-07T05:39:49;14.43;;;7.57;;
2001;SDS011;1003;48.002;7.788;2023-12-07T05:42:16;12.30;;;6.53;;
2001;SDS011;1003;48.002;7.788;2023-12-07T05:44:43;10.47;;;6.50;;
2001;SDS011;1003;48.002;7.788;2023-12-07T05:47:10;15.20;;;7.70;;
2001;SDS011;1003;48.002;7.788;2023-12-07T05:49:37;10.70;;;5.83;;
2001;SDS011;1003;48.002;7.788;2023-12-07T05:52:04;12.50;;;5.37;;
2001;SDS011;1003;48.002;7.788;2023-12-07T05:54:33;10.80;;;5.60;;
2001;SDS011;1003;48.002;7.788;2023-12-07T05:57:00;9.53;;;5.00;;
2001;SDS011;1003;48.002;7.788;2023-12-07T05:59:27;9.00;;;4.83;;
2001;SDS011;1003;48.002;7.788;2023-12-07T06:01:53;9.40;;;5.30;;
2001;SDS011;1003;48.002;7.788;2023-12-07T06:04:23;9.10;;;5.30;;
2001;SDS011;1003;48.002;7.788;2023-12-07T06:06:50;7.97;;;4.70;;
2001;SDS011;1003;48.002;7.788;2023-12-07T06:09:17;8.57;;;4.87;;
2001;SDS011;1003;48.002;7.788;2023-12-07T06:11:45;8.93;;;4.47;;
2001;SDS011;1003;48.002;7.788;2023-12-07T06:14:12;9.07;;;5.20;;
2001;SDS011;1003;48.002;7.788;2023-12-07T06:16:39;9.77;;;4.77;;
2001;SDS011;1003;48.002;7.788;2023-12-07T06:19:06;11.07;;;6.00;;
2001;SDS011;1003;48.002;7.788;2023-12-07T06:21:33;10.17;;;5.17;;
2001;SDS011;1003;48.002;7.788;2023-12-07T06:24:00;7.93;;;5.03;;
2001;SDS011;1003;48.002;7.788;2023-12-07T06:26:27;10.80;;;5.00;;
2001;SDS011;1003;48.002;7.788;2023-12-07T06:28:55;8.20;;;5.47;;
2001;SDS011;1003;48.002;7.788;2023-12-07T06:31:22;10.83;;;5.20;;
2001;SDS011;1003;48.002;7.788;2023-12-07T06:33:49;11.50;;;6.43;;
2001;SDS011;1003;48.002;7.788;2023-12-07T06:36:20;12.60;;;6.73;;
2001;SDS011;1003;48.002;7.788;2023-12-07T06:38:49;9.30;;;6.13;;
2001;SDS011;1003;48.002;7.788;2023-12-07T06:41:16;10.07;;;5.97;;
2001;SDS011;1003;48.002;7.788;2023-12-07T06:43:42;13.03;;;5.77;;
2001;SDS011;1003;48.002;7.788;2023-12-07T06:46:12;10.17;;;5.80;;
2001;SDS011;1003;48.002;7.788;2023-12-07T06:48:41;11.20;;;5.60;;
2001;SDS011;1003;48.002;7.788;2023-12-07T06:51:08;11.57;;;6.43;;
2001;SDS011;1003;48.002;7.788;2023-12-07T06:53:35;12.47;;;6.67;;
2001;SDS011;1003;48.002;7.788;2023-12-07T06:56:02;10.57;;;5.93;;
2001;SDS011;1003;48.002;7.788;2023-12-07T06:58:29;11.53;;;6.83;;
2001;SDS011;1003;48.002;7.788;2023-12-07T07:00:56;12.33;;;6.17;;
2001;SDS011;1003;48.002;7.788;2023-12-07T07:03:24;11.93;;;5.83;;
2001;SDS011;1003;48.002;7.788;2023-12-07T07:05:52;13.37;;;7.10;;
2001;SDS011;1003;48.002;7.788;2023-12-07T07:08:19;15.70;;;7.07;;
2001;SDS011;1003;48.002;7.788;2023-12-07T07:10:46;11.47;;;6.77;;
2001;SDS011;1003;48.002;7.788;2023-12-07T07:13:13;14.20;;;7.40;;
2001;SDS011;1003;48.002;7.788;2023-12-07T07:15:42;13.67;;;7.57;;
2001;SDS011;1003;48.002;7.788;2023-12-07T07:18:09;10.87;;;6.90;;
2001;SDS011;1003;48.002;7.788;2023-12-07T07:20:37;12.80;;;7.90;;
2001;SDS011;1003;48.002;7.788;2023-12-07T07:23:04;12.03;;;7.13;;
2001;SDS011;1003;48.002;7.788;2023-12-07T07:25:33;11.80;;;7.17;;
2001;SDS011;1003;48.002;7.788;2023-12-07T07:28:00;12.07;;;7.10;;
2001;SDS011;1003;48.002;7.788;2023-12-07T07:30:28;14.07;;;7.20;;
2001;SDS011;1003;48.002;7.788;2023-12-07T07:32:55;12.40;;;7.10;;
2001;SDS011;1003;48.002;7.788;2023-12-07T07:35:22;11.23;;;6.97;;
2001;SDS011;1003;48.002;7.788;2023-12-07T07:37:50;12.20;;;7.03;;
2001;SDS011;1003;48.002;7.788;2023-12-07T07:40:17;13.60;;;7.20;;
2001;SDS011;1003;48.002;7.788;2023-12-07T07:42:44;14.00;;;8.10;;
2001;SDS011;1003;48.002;7.788;2023-12-07T07:45:11;13.57;;;7.53;;
2001;SDS011;1003;48.002;7.788;2023-12-07T07:47:38;14.00;;;8.13;;
2001;SDS011;1003;48.002;7.788;2023-12-07T07:50:05;15.00;;;8.80;;
2001;SDS011;1003;48.002;7.788;2023-12-07T07:52:33;12.83;;;7.03;;
2001;SDS011;1003;48.002;7.788;2023-12-07T07:55:02;15.03;;;7.80;;
2001;SDS011;1003;48.002;7.788;2023-12-07T07:57:30;16.10;;;9.13;;
2001;SDS011;1003;48.002;7.788;2023-12-07T07:59:57;16.50;;;8.83;;
2001;SDS011;1003;48.002;7.788;2023-12-07T08:02:24;16.13;;;9.13;;
2001;SDS011;1003;48.002;7.788;2023-12-07T08:04:52;16.07;;;9.23;;
2001;SDS011;1003;48.002;7.788;2023-12-07T08:07:19;16.87;;;9.20;;
2001;SDS011;1003;48.002;7.788;2023-12-07T08:09:46;17.67;;;9.07;;
2001;SDS011;1003;48.002;7.788;2023-12-07T08:12:14;17.63;;;9.30;;
2001;SDS011;1003;48.002;7.788;2023-12-07T08:14:41;16.07;;;7.77;;
2001;SDS011;1003;48.002;7.788;2023-12-07T08:17:09;15.83;;;8.53;;
2001;SDS011;1003;48.002;7.788;2023-12-07T08:19:37;15.57;;;7.70;;
2001;SDS011;1003;48.002;7.788;2023-12-07T08:22:04;15.90;;;8.00;;
2001;SDS011;1003;48.002;7.788;2023-12-07T08:24:31;16.40;;;8.13;;
2001;SDS011;1003;48.002;7.788;2023-12-07T08:26:58;18.73;;;8.37;;
2001;SDS011;1003;48.002;7.788;2023-12-07T08:29:27;16.80;;;8.23;;
2001;SDS011;1003;48.002;7.788;2023-12-07T08:31:54;15.30;;;7.90;;
2001;SDS011;1003;48.002;7.788;2023-12-07T08:34:20;17.03;;;8.50;;
2001;SDS011;1003;48.002;7.788;2023-12-07T08:36:48;17.87;;;8.27;;
2001;SDS011;1003;48.002;7.788;2023-12-07T08:39:15;17.70;;;8.03;;
2001;SDS011;1003;48.002;7.788;2023-12-07T08:41:46;17.43;;;7.80;;
2001;SDS011;1003;48.002;7.788;2023-12-07T08:44:13;16.37;;;8.17;;
2001;SDS011;1003;48.002;7.788;2023-12-07T08:46:41;14.07;;;7.80;;
2001;SDS011;1003;48.002;7.788;2023-12-07T08:49:10;13.97;;;7.60;;
2001;SDS011;1003;48.002;7.788;2023-12-07T08:51:37;13.73;;;6.80;;
2001;SDS011;1003;48.002;7.788;2023-12-07T08:54:04;15.40;;;7.30;;
2001;SDS011;1003;48.002;7.788;2023-12-07T08:56:31;20.23;;;7.67;;
2001;SDS011;1003;48.002;7.788;2023-12-07T08:58:58;19.00;;;7.67;;
2001;SDS011;1003;48.002;7.788;2023-12-07T09:01:25;14.67;;;7.40;;
2001;SDS011;1003;48.002;7.788;2023-12-07T09:03:53;15.67;;;7.53;;
2001;SDS011;1003;48.002;7.788;2023-12-07T09:06:20;14.70;;;7.43;;
2001;SDS011;1003;48.002;7.788;2023-12-07T09:08:47;16.00;;;7.40;;
2001;SDS011;1003;48.002;7.788;2023-12-07T09:11:14;17.17;;;8.03;;
2001;SDS011;1003;48.002;7.788;2023-12-07T09:13:41;17.63;;;7.90;;
2001;SDS011;1003;48.002;7.788;2023-12-07T09:16:08;16.60;;;7.93;;
2001;SDS011;1003;48.002;7.788;2023-12-07T09:18:35;17.80;;;7.70;;
2001;SDS011;1003;48.002;7.788;2023-12-07T09:21:04;15.90;;;8.30;;
2001;SDS011;1003;48.002;7.788;2023-12-07T09:23:31;14.57;;;7.43;;
2001;SDS011;1003;48.002;7.788;2023-12-07T09:25:58;20.20;;;8.50;;
2001;SDS011;1003;48.002;7.788;2023-12-07T09:28:25;19.57;;;8.50;;
2001;SDS011;1003;48.002;7.788;2023-12-07T09:30:52;19.30;;;8.60;;
2001;SDS011;1003;48.002;7.788;2023-12-07T09:33:19;19.87;;;8.70;;
2001;SDS011;1003;48.002;7.788;2023-12-07T09:35:46;22.90;;;9.10;;
2001;SDS011;1003;48.002;7.788;2023-12-07T09:38:15;24.00;;;8.73;;
2001;SDS011;1003;48.002;7.788;2023-12-07T09:40:42;19.10;;;8.80;;
2001;SDS011;1003;48.002;7.788;2023-12-07T09:43:11;19.97;;;9.17;;
2001;SDS011;1003;48.002;7.788;2023-12-07T09:45:38;20.53;;;9.30;;
2001;SDS011;1003;48.002;7.788;2023-12-07T09:48:06;25.77;;;9.43;;
2001;SDS011;1003;48.002;7.788;2023-12-07T09:50:34;24.57;;;9.97;;
2001;SDS011;1003;48.002;7.788;2023-12-07T09:53:01;22.47;;;9.23;;
2001;SDS011;1003;48.002;7.788;2023-12-07T09:55:29;20.23;;;8.77;;
2001;SDS011;1003;48.002;7.788;2023-12-07T09:57:56;20.97;;;9.03;;
2001;SDS011;1003;48.002;7.788;2023-12-07T10:00:24;24.57;;;9.90;;
2001;SDS011;1003;48.002;7.788;2023-12-07T10:02:51;24.80;;;9.60;;
2001;SDS011;1003;48.002;7.788;2023-12-07T10:05:18;20.13;;;9.43;;
2001;SDS011;1003;48.002;7.788;2023-12-07T10:07:45;19.53;;;9.30;;
2001;SDS011;1003;48.002;7.788;2023-12-07T10:10:15;20.87;;;9.60;;
2001;SDS011;1003;48.002;7.788;2023-12-07T10:12:51;22.50;;;10.03;;
2001;SDS011;1003;48.002;7.788;2023-12-07T10:15:19;19.87;;;8.90;;
2001;SDS011;1003;48.002;7.788;2023-12-07T10:17:48;19.70;;;9.10;;
2001;SDS011;1003;48.002;7.788;2023-12-07T10:20:18;22.57;;;10.33;;
2001;SDS011;1003;48.002;7.788;2023-12-07T10:22:49;20.20;;;9.70;;
2001;SDS011;1003;48.002;7.788;2023-12-07T10:25:27;17.30;;;9.13;;
2001;SDS011;1003;48.002;7.788;2023-12-07T10:27:56;21.33;;;9.57;;
2001;SDS011;1003;48.002;7.788;2023-12-07T10:30:23;19.37;;;9.43;;
2001;SDS011;1003;48.002;7.788;2023-12-07T10:32:50;14.87;;;7.97;;
2001;SDS011;1003;48.002;7.788;2023-12-07T10:35:18;16.43;;;7.83;;
2001;SDS011;1003;48.002;7.788;2023-12-07T10:37:45;14.03;;;8.27;;
2001;SDS011;1003;48.002;7.788;2023-12-07T10:40:13;16.10;;;7.93;;
2001;SDS011;1003;48.002;7.788;2023-12-07T10:42:41;17.30;;;8.43;;
2001;SDS011;1003;48.002;7.788;2023-12-07T10:45:13;18.30;;;9.17;;
2001;SDS011;1003;48.002;7.788;2023-12-07T10:47:43;17.50;;;9.13;;
2001;SDS011;1003;48.002;7.788;2023-12-07T10:50:11;16.03;;;8.27;;
2001;SDS011;1003;48.002;7.788;2023-12-07T10:52:48;16.07;;;8.03;;
2001;SDS011;1003;48.002;7.788;2023-12-07T10:55:20;14.00;;;7.33;;
2001;SDS011;1003;48.002;7.788;2023-12-07T10:57:53;14.83;;;7.73;;
2001;SDS011;1003;48.002;7.788;2023-12-07T11:00:22;15.10;;;8.17;;
2001;SDS011;1003;48.002;7.788;2023-12-07T11:02:52;12.33;;;7.03;;
2001;SDS011;1003;48.002;7.788;2023-12-07T11:05:20;14.03;;;7.13;;
2001;SDS011;1003;48.002;7.788;2023-12-07T11:07:48;11.13;;;6.60;;
2001;SDS011;1003;48.002;7.788;2023-12-07T11:10:34;9.40;;;5.93;;
2001;SDS011;1003;48.002;7.788;2023-12-07T11:13:16;11.70;;;6.90;;
2001;SDS011;1003;48.002;7.788;2023-12-07T11:15:50;11.00;;;6.57;;
2001;SDS011;1003;48.002;7.788;2023-12-07T11:18:18;11.13;;;6.50;;
2001;SDS011;1003;48.002;7.788;2023-12-07T11:20:45;12.47;;;6.87;;
2001;SDS011;1003;48.002;7.788;2023-12-07T11:23:15;11.57;;;6.60;;
2001;SDS011;1003;48.002;7.788;2023-12-07T11:25:44;13.67;;;7.53;;
2001;SDS011;1003;48.002;7.788;2023-12-07T11:28:12;12.00;;;6.60;;
2001;SDS011;1003;48.002;7.788;2023-12-07T11:30:41;14.70;;;7.27;;
2001;SDS011;1003;48.002;7.788;2023-12-07T11:33:13;14.30;;;7.83;;
2001;SDS011;1003;48.002;7.788;2023-12-07T11:38:34;13.63;;;7.50;;
2001;SDS011;1003;48.002;7.788;2023-12-07T11:41:03;14.33;;;7.83;;
2001;SDS011;1003;48.002;7.788;2023-12-07T11:43:40;13.83;;;7.63;;
2001;SDS011;1003;48.002;7.788;2023-12-07T11:46:11;13.10;;;7.07;;
2001;SDS011;1003;48.002;7.788;2023-12-07T11:48:40;15.43;;;7.47;;
2001;SDS011;1003;48.002;7.788;2023-12-07T11:51:15;12.03;;;6.97;;
2001;SDS011;1003;48.002;7.788;2023-12-07T11:53:43;13.70;;;7.47;;
2001;SDS011;1003;48.002;7.788;2023-12-07T11:56:10;11.37;;;6.30;;
2001;SDS011;1003;48.002;7.788;2023-12-07T11:58:38;11.27;;;6.57;;
2001;SDS011;1003;48.002;7.788;2023-12-07T12:01:05;14.80;;;7.10;;
2001;SDS011;1003;48.002;7.788;2023-12-07T12:03:33;13.87;;;7.57;;
2001;SDS011;1003;48.002;7.788;2023-12-07T12:06:03;13.43;;;7.83;;
2001;SDS011;1003;48.002;7.788;2023-12-07T12:08:33;12.73;;;7.33;;
2001;SDS011;1003;48.002;7.788;2023-12-07T12:11:00;13.33;;;7.27;;
2001;SDS011;1003;48.002;7.788;2023-12-07T12:13:27;12.40;;;7.47;;
2001;SDS011;1003;48.002;7.788;2023-12-07T12:15:55;14.40;;;7.80;;
2001;SDS011;1003;48.002;7.788;2023-12-07T12:18:23;12.00;;;7.10;;
2001;SDS011;1003;48.002;7.788;2023-12-07T12:20:51;13.77;;;7.67;;
2001;SDS011;1003;48.002;7.788;2023-12-07T12:23:20;13.10;;;7.43;;
2001;SDS011;1003;48.002;7.788;2023-12-07T12:25:47;15.30;;;8.20;;
2001;SDS011;1003;48.002;7.788;2023-12-07T12:28:16;14.83;;;8.00;;
2001;SDS011;1003;48.002;7.788;2023-12-07T12:30:46;18.80;;;8.23;;
2001;SDS011;1003;48.002;7.788;2023-12-07T12:33:14;30.63;;;10.73;;
2001;SDS011;1003;48.002;7.788;2023-12-07T12:35:41;14.33;;;8.03;;
2001;SDS011;1003;48.002;7.788;2023-12-07T12:38:09;14.17;;;8.00;;
2001;SDS011;1003;48.002;7.788;2023-12-07T12:40:38;15.43;;;7.90;;
2001;SDS011;1003;48.002;7.788;2023-12-07T12:43:06;17.77;;;8.47;;
2001;SDS011;1003;48.002;7.788;2023-12-07T12:45:34;17.63;;;8.60;;
2001;SDS011;1003;48.002;7.788;2023-12-07T12:48:01;18.00;;;8.70;;
2001;SDS011;1003;48.002;7.788;2023-12-07T12:50:34;17.67;;;8.97;;
2001;SDS011;1003;48.002;7.788;2023-12-07T12:53:04;16.70;;;8.67;;
2001;SDS011;1003;48.002;7.788;2023-12-07T12:55:34;21.23;;;10.03;;
2001;SDS011;1003;48.002;7.788;2023-12-07T12:58:04;19.93;;;9.30;;
2001;SDS011;1003;48.002;7.788;2023-12-07T13:00:34;18.07;;;8.90;;
2001;SDS011;1003;48.002;7.788;2023-12-07T13:03:04;20.03;;;9.80;;
2001;SDS011;1003;48.002;7.788;2023-12-07T13:05:32;17.47;;;8.93;;
2001;SDS011;1003;48.002;7.788;2023-12-07T13:08:01;19.20;;;9.33;;
2001;SDS011;1003;48.002;7.788;2023-12-07T13:10:28;19.60;;;9.17;;
2001;SDS011;1003;48.002;7.788;2023-12-07T13:12:56;18.57;;;8.47;;
2001;SDS011;1003;48.002;7.788;2023-12-07T13:15:25;18.30;;;8.93;;
2001;SDS011;1003;48.002;7.788;2023-12-07T13:17:51;17.60;;;9.03;;
2001;SDS011;1003;48.002;7.788;2023-12-07T13:20:18;22.70;;;11.13;;
2001;SDS011;1003;48.002;7.788;2023-12-07T13:22:45;22.30;;;10.07;;
2001;SDS011;1003;48.002;7.788;2023-12-07T13:25:12;18.47;;;9.37;;
2001;SDS011;1003;48.002;7.788;2023-12-07T13:27:40;21.90;;;10.33;;
2001;SDS011;1003;48.002;7.788;2023-12-07T13:30:08;21.97;;;10.47;;
2001;SDS011;1003;48.002;7.788;2023-12-07T13:32:37;21.13;;;10.20;;
2001;SDS011;1003;48.002;7.788;2023-12-07T13:35:04;19.87;;;9.10;;
2001;SDS011;1003;48.002;7.788;2023-12-07T13:37:32;18.17;;;9.27;;
2001;SDS011;1003;48.002;7.788;2023-12-07T13:39:59;19.03;;;9.60;;
2001;SDS011;1003;48.002;7.788;2023-12-07T13:42:29;19.43;;;10.03;;
2001;SDS011;1003;48.002;7.788;2023-12-07T13:44:57;19.63;;;9.50;;
2001;SDS011;1003;48.002;7.788;2023-12-07T13:47:25;22.43;;;10.47;;
2001;SDS011;1003;48.002;7.788;2023-12-07T13:49:58;22.53;;;10.40;;
2001;SDS011;1003;48.002;7.788;2023-12-07T13:52:26;20.23;;;9.50;;
2001;SDS011;1003;48.002;7.788;2023-12-07T13:54:54;19.40;;;9.10;;
2001;SDS011;1003;48.002;7.788;2023-12-07T13:57:21;21.80;;;9.33;;
2001;SDS011;1003;48.002;7.788;2023-12-07T13:59:50;18.57;;;9.17;;
2001;SDS011;1003;48.002;7.788;2023-12-07T14:02:17;18.00;;;9.10;;
2001;SDS011;1003;48.002;7.788;2023-12-07T14:04:45;17.17;;;9.47;;
2001;SDS011;1003;48.002;7.788;2023-12-07T14:07:16;19.73;;;9.97;;
2001;SDS011;1003;48.002;7.788;2023-12-07T14:09:46;21.23;;;9.40;;
2001;SDS011;1003;48.002;7.788;2023-12-07T14:12:15;24.27;;;10.37;;
2001;SDS011;1003;48.002;7.788;2023-12-07T14:14:43;22.77;;;9.97;;
2001;SDS011;1003;48.002;7.788;2023-12-07T14:17:12;21.23;;;9.30;;
2001;SDS011;1003;48.002;7.788;2023-12-07T14:19:40;18.53;;;8.97;;
2001;SDS011;1003;48.002;7.788;2023-12-07T14:22:07;20.53;;;9.73;;
2001;SDS011;1003;48.002;7.788;2023-12-07T14:24:36;22.43;;;9.77;;
2001;SDS011;1003;48.002;7.788;2023-12-07T14:27:03;22.23;;;10.80;;
2001;SDS011;1003;48.002;7.788;2023-12-07T14:29:32;20.63;;;9.80;;
2001;SDS011;1003;48.002;7.788;2023-12-07T14:31:59;17.23;;;9.03;;
2001;SDS011;1003;48.002;7.788;2023-12-07T14:34:26;22.73;;;10.47;;
2001;SDS011;1003;48.002;7.788;2023-12-07T14:36:54;22.67;;;10.43;;
2001;SDS011;1003;48.002;7.788;2023-12-07T14:39:21;22.13;;;9.90;;
2001;SDS011;1003;48.002;7.788;2023-12-07T14:41:49;20.33;;;9.60;;
2001;SDS011;1003;48.002;7.788;2023-12-07T14:44:17;22.13;;;9.73;;
2001;SDS011;1003;48.002;7.788;2023-12-07T14:46:45;22.13;;;10.70;;
2001;SDS011;1003;48.002;7.788;2023-12-07T14:49:13;27.23;;;13.73;;
2001;SDS011;1003;48.002;7.788;2023-12-07T14:51:43;21.50;;;10.97;;
2001;SDS011;1003;48.002;7.788;2023-12-07T14:54:10;19.37;;;9.93;;
2001;SDS011;1003;48.002;7.788;2023-12-07T14:56:37;23.73;;;10.53;;
2001;SDS011;1003;48.002;7.788;2023-12-07T14:59:07;22.23;;;10.83;;
2001;SDS011;1003;48.002;7.788;2023-12-07T15:01:36;25.13;;;10.67;;
2001;SDS011;1003;48.002;7.788;2023-12-07T15:04:03;20.23;;;9.97;;
2001;SDS011;1003;48.002;7.788;2023-12-07T15:06:31;23.60;;;10.37;;
2001;SDS011;1003;48.002;7.788;2023-12-07T15:08:58;19.30;;;9.53;;
2001;SDS011;1003;48.002;7.788;2023-12-07T15:11:25;21.37;;;10.17;;
2001;SDS011;1003;48.002;7.788;2023-12-07T15:13:52;25.63;;;11.50;;